sensor_id;sensor_type;location;lat;lon;timestamp;P1;durP1;ratioP1;P2;durP2;ratioP2
41261;SDS011;29629;52.532;13.352;2023-05-21T00:00:38;110.78;;;77.60;;
41261;SDS011;29629;52.532;13.352;2023-05-21T00:03:05;111.10;;;77.75;;
41261;SDS011;29629;52.532;13.352;2023-05-21T00:05:37;100.32;;;74.82;;
41261;SDS011;29629;52.532;13.352;2023-05-21T00:08:04;108.55;;;76.47;;
41261;SDS011;29629;52.532;13.352;2023-05-21T00:10:31;108.13;;;77.90;;
41261;SDS011;29629;52.532;13.352;2023-05-21T00:13:00;102.43;;;75.38;;
41261;SDS011;29629;52.532;13.352;2023-05-21T00:15:26;102.30;;;75.97;;
41261;SDS011;29629;52.532;13.352;2023-05-21T00:17:53;103.88;;;75.50;;
41261;SDS011;29629;52.532;13.352;2023-05-21T00:20:20;101.07;;;75.10;;
41261;SDS011;29629;52.532;13.352;2023-05-21T00:22:47;104.10;;;76.70;;
41261;SDS011;29629;52.532;13.352;2023-05-21T00:25:14;103.00;;;76.10;;
41261;SDS011;29629;52.532;13.352;2023-05-21T00:27:41;128.32;;;82.32;;
41261;SDS011;29629;52.532;13.352;2023-05-21T00:30:09;103.35;;;75.78;;
41261;SDS011;29629;52.532;13.352;2023-05-21T00:32:37;107.38;;;76.93;;
41261;SDS011;29629;52.532;13.352;2023-05-21T00:35:04;108.55;;;76.47;;
41261;SDS011;29629;52.532;13.352;2023-05-21T00:37:31;108.50;;;76.90;;
41261;SDS011;29629;52.532;13.352;2023-05-21T00:39:59;105.80;;;75.75;;
41261;SDS011;29629;52.532;13.352;2023-05-21T00:42:26;115.20;;;79.15;;
41261;SDS011;29629;52.532;13.352;2023-05-21T00:44:54;111.15;;;78.60;;
41261;SDS011;29629;52.532;13.352;2023-05-21T00:47:23;108.60;;;76.95;;
41261;SDS011;29629;52.532;13.352;2023-05-21T00:49:50;111.70;;;79.00;;
41261;SDS011;29629;52.532;13.352;2023-05-21T00:52:19;111.35;;;78.68;;
41261;SDS011;29629;52.532;13.352;2023-05-21T00:54:47;97.88;;;73.93;;
41261;SDS011;29629;52.532;13.352;2023-05-21T00:57:15;103.15;;;75.15;;
41261;SDS011;29629;52.532;13.352;2023-05-21T00:59:44;111.82;;;78.15;;
41261;SDS011;29629;52.532;13.352;2023-05-21T01:02:12;108.40;;;78.68;;
41261;SDS011;29629;52.532;13.352;2023-05-21T01:04:43;114.47;;;78.90;;
41261;SDS011;29629;52.532;13.352;2023-05-21T01:07:10;105.50;;;76.05;;
41261;SDS011;29629;52.532;13.352;2023-05-21T01:09:38;108.30;;;75.97;;
41261;SDS011;29629;52.532;13.352;2023-05-21T01:12:05;109.95;;;76.80;;
41261;SDS011;29629;52.532;13.352;2023-05-21T01:14:33;110.75;;;77.30;;
41261;SDS011;29629;52.532;13.352;2023-05-21T01:17:01;110.40;;;78.45;;
41261;SDS011;29629;52.532;13.352;2023-05-21T01:19:29;105.25;;;75.53;;
41261;SDS011;29629;52.532;13.352;2023-05-21T01:21:59;105.60;;;74.88;;
41261;SDS011;29629;52.532;13.352;2023-05-21T01:24:30;111.40;;;76.70;;
41261;SDS011;29629;52.532;13.352;2023-05-21T01:26:57;104.90;;;76.43;;
41261;SDS011;29629;52.532;13.352;2023-05-21T01:29:24;111.85;;;78.13;;
41261;SDS011;29629;52.532;13.352;2023-05-21T01:31:55;111.43;;;77.60;;
41261;SDS011;29629;52.532;13.352;2023-05-21T01:34:29;111.95;;;78.30;;
41261;SDS011;29629;52.532;13.352;2023-05-21T01:37:06;109.25;;;77.13;;
41261;SDS011;29629;52.532;13.352;2023-05-21T01:39:41;113.80;;;78.35;;
41261;SDS011;29629;52.532;13.352;2023-05-21T01:42:12;107.97;;;77.00;;
41261;SDS011;29629;52.532;13.352;2023-05-21T01:44:41;107.75;;;77.28;;
41261;SDS011;29629;52.532;13.352;2023-05-21T01:47:10;103.32;;;75.55;;
41261;SDS011;29629;52.532;13.352;2023-05-21T01:49:37;113.03;;;78.32;;
41261;SDS011;29629;52.532;13.352;2023-05-21T01:52:05;106.30;;;76.63;;
41261;SDS011;29629;52.532;13.352;2023-05-21T01:54:33;111.68;;;78.47;;
41261;SDS011;29629;52.532;13.352;2023-05-21T01:57:01;100.97;;;74.70;;
41261;SDS011;29629;52.532;13.352;2023-05-21T01:59:28;112.20;;;78.22;;
41261;SDS011;29629;52.532;13.352;2023-05-21T02:01:55;109.75;;;76.82;;
41261;SDS011;29629;52.532;13.352;2023-05-21T02:04:22;109.85;;;77.38;;
41261;SDS011;29629;52.532;13.352;2023-05-21T02:06:49;106.93;;;77.47;;
41261;SDS011;29629;52.532;13.352;2023-05-21T02:09:18;111.53;;;77.65;;
41261;SDS011;29629;52.532;13.352;2023-05-21T02:11:45;107.70;;;77.88;;
41261;SDS011;29629;52.532;13.352;2023-05-21T02:14:13;107.13;;;75.75;;
41261;SDS011;29629;52.532;13.352;2023-05-21T02:16:40;111.80;;;79.25;;
41261;SDS011;29629;52.532;13.352;2023-05-21T02:19:07;113.53;;;78.88;;
41261;SDS011;29629;52.532;13.352;2023-05-21T02:21:35;103.78;;;76.38;;
41261;SDS011;29629;52.532;13.352;2023-05-21T02:24:02;108.90;;;77.82;;
41261;SDS011;29629;52.532;13.352;2023-05-21T02:26:29;110.68;;;77.75;;
41261;SDS011;29629;52.532;13.352;2023-05-21T02:28:56;120.93;;;82.25;;
41261;SDS011;29629;52.532;13.352;2023-05-21T02:31:25;110.68;;;78.40;;
41261;SDS011;29629;52.532;13.352;2023-05-21T02:33:52;106.70;;;76.63;;
41261;SDS011;29629;52.532;13.352;2023-05-21T02:36:18;94.40;;;72.85;;
41261;SDS011;29629;52.532;13.352;2023-05-21T02:38:45;111.00;;;78.55;;
41261;SDS011;29629;52.532;13.352;2023-05-21T02:41:12;107.53;;;76.95;;
41261;SDS011;29629;52.532;13.352;2023-05-21T02:43:42;108.90;;;77.30;;
41261;SDS011;29629;52.532;13.352;2023-05-21T02:46:12;100.38;;;74.30;;
41261;SDS011;29629;52.532;13.352;2023-05-21T02:48:40;110.78;;;77.97;;
41261;SDS011;29629;52.532;13.352;2023-05-21T02:51:07;105.72;;;76.90;;
41261;SDS011;29629;52.532;13.352;2023-05-21T02:53:34;109.80;;;76.72;;
41261;SDS011;29629;52.532;13.352;2023-05-21T02:56:01;106.00;;;76.40;;
41261;SDS011;29629;52.532;13.352;2023-05-21T02:58:28;103.97;;;76.35;;
41261;SDS011;29629;52.532;13.352;2023-05-21T03:00:55;108.72;;;77.43;;
41261;SDS011;29629;52.532;13.352;2023-05-21T03:03:22;107.45;;;77.10;;
41261;SDS011;29629;52.532;13.352;2023-05-21T03:05:50;111.47;;;77.78;;
41261;SDS011;29629;52.532;13.352;2023-05-21T03:08:17;107.65;;;76.57;;
41261;SDS011;29629;52.532;13.352;2023-05-21T03:10:44;114.90;;;78.47;;
41261;SDS011;29629;52.532;13.352;2023-05-21T03:13:11;106.72;;;77.28;;
41261;SDS011;29629;52.532;13.352;2023-05-21T03:15:38;108.85;;;77.80;;
41261;SDS011;29629;52.532;13.352;2023-05-21T03:18:05;104.38;;;76.30;;
41261;SDS011;29629;52.532;13.352;2023-05-21T03:20:32;113.53;;;79.40;;
41261;SDS011;29629;52.532;13.352;2023-05-21T03:23:00;101.50;;;76.07;;
41261;SDS011;29629;52.532;13.352;2023-05-21T03:25:28;109.38;;;77.65;;
41261;SDS011;29629;52.532;13.352;2023-05-21T03:27:55;105.70;;;76.40;;
41261;SDS011;29629;52.532;13.352;2023-05-21T03:30:22;108.15;;;78.55;;
41261;SDS011;29629;52.532;13.352;2023-05-21T03:32:49;112.75;;;78.25;;
41261;SDS011;29629;52.532;13.352;2023-05-21T03:35:16;105.18;;;77.07;;
41261;SDS011;29629;52.532;13.352;2023-05-21T03:37:43;110.47;;;76.95;;
41261;SDS011;29629;52.532;13.352;2023-05-21T03:40:12;109.10;;;77.57;;
41261;SDS011;29629;52.532;13.352;2023-05-21T03:42:39;111.60;;;78.85;;
41261;SDS011;29629;52.532;13.352;2023-05-21T03:45:06;109.28;;;77.47;;
41261;SDS011;29629;52.532;13.352;2023-05-21T03:47:33;110.00;;;78.28;;
41261;SDS011;29629;52.532;13.352;2023-05-21T03:50:01;108.82;;;77.05;;
41261;SDS011;29629;52.532;13.352;2023-05-21T03:52:29;107.18;;;77.00;;
41261;SDS011;29629;52.532;13.352;2023-05-21T03:54:56;105.72;;;76.70;;
41261;SDS011;29629;52.532;13.352;2023-05-21T03:57:24;109.10;;;77.63;;
41261;SDS011;29629;52.532;13.352;2023-05-21T03:59:51;117.43;;;80.80;;
41261;SDS011;29629;52.532;13.352;2023-05-21T04:02:20;107.20;;;76.82;;
41261;SDS011;29629;52.532;13.352;2023-05-21T04:04:47;114.63;;;79.57;;
41261;SDS011;29629;52.532;13.352;2023-05-21T04:07:15;114.38;;;80.38;;
41261;SDS011;29629;52.532;13.352;2023-05-21T04:09:43;107.60;;;77.78;;
41261;SDS011;29629;52.532;13.352;2023-05-21T04:12:10;108.72;;;77.80;;
41261;SDS011;29629;52.532;13.352;2023-05-21T04:14:38;113.78;;;78.63;;
41261;SDS011;29629;52.532;13.352;2023-05-21T04:17:05;100.43;;;75.05;;
41261;SDS011;29629;52.532;13.352;2023-05-21T04:19:33;110.88;;;78.80;;
41261;SDS011;29629;52.532;13.352;2023-05-21T04:22:00;110.38;;;78.65;;
41261;SDS011;29629;52.532;13.352;2023-05-21T04:24:27;109.93;;;78.72;;
41261;SDS011;29629;52.532;13.352;2023-05-21T04:26:54;111.45;;;79.50;;
41261;SDS011;29629;52.532;13.352;2023-05-21T04:29:25;113.22;;;79.40;;
41261;SDS011;29629;52.532;13.352;2023-05-21T04:31:53;110.80;;;79.57;;
41261;SDS011;29629;52.532;13.352;2023-05-21T04:34:20;110.13;;;79.30;;
41261;SDS011;29629;52.532;13.352;2023-05-21T04:36:47;112.82;;;78.53;;
41261;SDS011;29629;52.532;13.352;2023-05-21T04:39:16;105.40;;;77.47;;
41261;SDS011;29629;52.532;13.352;2023-05-21T04:41:42;112.03;;;80.80;;
41261;SDS011;29629;52.532;13.352;2023-05-21T04:44:09;109.70;;;79.10;;
41261;SDS011;29629;52.532;13.352;2023-05-21T04:46:38;113.85;;;79.82;;
41261;SDS011;29629;52.532;13.352;2023-05-21T04:49:08;111.78;;;79.70;;
41261;SDS011;29629;52.532;13.352;2023-05-21T04:51:35;111.22;;;80.45;;
41261;SDS011;29629;52.532;13.352;2023-05-21T04:54:02;105.13;;;77.10;;
41261;SDS011;29629;52.532;13.352;2023-05-21T04:56:29;107.35;;;78.78;;
41261;SDS011;29629;52.532;13.352;2023-05-21T04:58:56;126.05;;;84.78;;
41261;SDS011;29629;52.532;13.352;2023-05-21T05:01:23;114.25;;;80.85;;
41261;SDS011;29629;52.532;13.352;2023-05-21T05:03:53;109.22;;;79.15;;
41261;SDS011;29629;52.532;13.352;2023-05-21T05:06:21;111.13;;;80.40;;
41261;SDS011;29629;52.532;13.352;2023-05-21T05:08:49;117.70;;;82.95;;
41261;SDS011;29629;52.532;13.352;2023-05-21T05:11:16;110.38;;;80.15;;
41261;SDS011;29629;52.532;13.352;2023-05-21T05:13:43;105.75;;;78.53;;
41261;SDS011;29629;52.532;13.352;2023-05-21T05:16:10;101.95;;;77.90;;
41261;SDS011;29629;52.532;13.352;2023-05-21T05:18:38;107.25;;;79.88;;
41261;SDS011;29629;52.532;13.352;2023-05-21T05:21:05;110.95;;;81.20;;
41261;SDS011;29629;52.532;13.352;2023-05-21T05:23:33;105.88;;;79.20;;
41261;SDS011;29629;52.532;13.352;2023-05-21T05:26:00;107.93;;;78.60;;
41261;SDS011;29629;52.532;13.352;2023-05-21T05:28:27;106.97;;;78.57;;
41261;SDS011;29629;52.532;13.352;2023-05-21T05:30:54;101.82;;;77.88;;
41261;SDS011;29629;52.532;13.352;2023-05-21T05:33:21;107.25;;;80.38;;
41261;SDS011;29629;52.532;13.352;2023-05-21T05:35:48;110.38;;;80.68;;
41261;SDS011;29629;52.532;13.352;2023-05-21T05:38:15;112.07;;;81.22;;
41261;SDS011;29629;52.532;13.352;2023-05-21T05:40:43;117.63;;;83.75;;
41261;SDS011;29629;52.532;13.352;2023-05-21T05:43:10;108.05;;;80.47;;
41261;SDS011;29629;52.532;13.352;2023-05-21T05:45:37;110.72;;;80.90;;
41261;SDS011;29629;52.532;13.352;2023-05-21T05:48:04;104.10;;;79.35;;
41261;SDS011;29629;52.532;13.352;2023-05-21T05:50:31;107.88;;;80.20;;
41261;SDS011;29629;52.532;13.352;2023-05-21T05:52:58;106.50;;;80.63;;
41261;SDS011;29629;52.532;13.352;2023-05-21T05:55:25;104.25;;;79.53;;
41261;SDS011;29629;52.532;13.352;2023-05-21T05:57:53;96.82;;;77.22;;
41261;SDS011;29629;52.532;13.352;2023-05-21T06:00:20;105.72;;;80.13;;
41261;SDS011;29629;52.532;13.352;2023-05-21T06:02:47;105.93;;;79.10;;
41261;SDS011;29629;52.532;13.352;2023-05-21T06:05:14;109.43;;;81.47;;
41261;SDS011;29629;52.532;13.352;2023-05-21T06:07:41;108.95;;;81.10;;
41261;SDS011;29629;52.532;13.352;2023-05-21T06:10:08;108.60;;;78.63;;
41261;SDS011;29629;52.532;13.352;2023-05-21T06:12:35;108.22;;;79.80;;
41261;SDS011;29629;52.532;13.352;2023-05-21T06:15:04;105.85;;;79.60;;
41261;SDS011;29629;52.532;13.352;2023-05-21T06:17:32;107.30;;;80.47;;
41261;SDS011;29629;52.532;13.352;2023-05-21T06:19:58;97.18;;;76.78;;
41261;SDS011;29629;52.532;13.352;2023-05-21T06:22:25;105.25;;;79.88;;
41261;SDS011;29629;52.532;13.352;2023-05-21T06:24:52;107.53;;;80.32;;
41261;SDS011;29629;52.532;13.352;2023-05-21T06:27:19;110.20;;;79.60;;
41261;SDS011;29629;52.532;13.352;2023-05-21T06:29:46;106.47;;;80.32;;
41261;SDS011;29629;52.532;13.352;2023-05-21T06:32:14;106.93;;;81.03;;
41261;SDS011;29629;52.532;13.352;2023-05-21T06:34:41;99.18;;;77.43;;
41261;SDS011;29629;52.532;13.352;2023-05-21T06:37:08;108.80;;;81.25;;
41261;SDS011;29629;52.532;13.352;2023-05-21T06:39:35;108.10;;;80.30;;
41261;SDS011;29629;52.532;13.352;2023-05-21T06:42:02;105.13;;;79.07;;
41261;SDS011;29629;52.532;13.352;2023-05-21T06:44:29;112.80;;;81.13;;
41261;SDS011;29629;52.532;13.352;2023-05-21T06:46:56;104.80;;;79.95;;
41261;SDS011;29629;52.532;13.352;2023-05-21T06:49:24;107.05;;;80.07;;
41261;SDS011;29629;52.532;13.352;2023-05-21T06:51:51;106.00;;;79.45;;
41261;SDS011;29629;52.532;13.352;2023-05-21T06:54:18;106.93;;;80.53;;
41261;SDS011;29629;52.532;13.352;2023-05-21T06:56:45;113.72;;;80.57;;
41261;SDS011;29629;52.532;13.352;2023-05-21T06:59:12;106.60;;;79.60;;
41261;SDS011;29629;52.532;13.352;2023-05-21T07:01:39;104.53;;;79.18;;
41261;SDS011;29629;52.532;13.352;2023-05-21T07:04:07;97.88;;;77.38;;
41261;SDS011;29629;52.532;13.352;2023-05-21T07:06:36;109.97;;;81.80;;
41261;SDS011;29629;52.532;13.352;2023-05-21T07:09:04;115.05;;;83.22;;
41261;SDS011;29629;52.532;13.352;2023-05-21T07:11:31;107.40;;;79.97;;
41261;SDS011;29629;52.532;13.352;2023-05-21T07:13:58;102.05;;;79.90;;
41261;SDS011;29629;52.532;13.352;2023-05-21T07:16:25;105.50;;;79.30;;
41261;SDS011;29629;52.532;13.352;2023-05-21T07:18:52;112.53;;;82.95;;
41261;SDS011;29629;52.532;13.352;2023-05-21T07:21:19;104.30;;;79.50;;
41261;SDS011;29629;52.532;13.352;2023-05-21T07:23:48;102.43;;;79.35;;
41261;SDS011;29629;52.532;13.352;2023-05-21T07:26:15;101.40;;;79.28;;
41261;SDS011;29629;52.532;13.352;2023-05-21T07:28:42;104.30;;;80.07;;
41261;SDS011;29629;52.532;13.352;2023-05-21T07:31:09;100.55;;;79.40;;
41261;SDS011;29629;52.532;13.352;2023-05-21T07:33:37;99.07;;;79.00;;
41261;SDS011;29629;52.532;13.352;2023-05-21T07:36:05;97.28;;;77.60;;
41261;SDS011;29629;52.532;13.352;2023-05-21T07:38:32;93.70;;;77.20;;
41261;SDS011;29629;52.532;13.352;2023-05-21T07:41:00;94.90;;;77.05;;
41261;SDS011;29629;52.532;13.352;2023-05-21T07:43:27;104.13;;;80.57;;
41261;SDS011;29629;52.532;13.352;2023-05-21T07:45:54;96.32;;;85.32;;
41261;SDS011;29629;52.532;13.352;2023-05-21T07:48:21;99.97;;;80.03;;
41261;SDS011;29629;52.532;13.352;2023-05-21T07:50:48;99.35;;;80.78;;
41261;SDS011;29629;52.532;13.352;2023-05-21T07:53:16;96.00;;;79.80;;
41261;SDS011;29629;52.532;13.352;2023-05-21T07:55:45;90.57;;;78.05;;
41261;SDS011;29629;52.532;13.352;2023-05-21T07:58:14;96.65;;;85.85;;
41261;SDS011;29629;52.532;13.352;2023-05-21T08:00:43;97.00;;;83.38;;
41261;SDS011;29629;52.532;13.352;2023-05-21T08:03:12;95.07;;;80.90;;
41261;SDS011;29629;52.532;13.352;2023-05-21T08:05:41;98.10;;;84.63;;
41261;SDS011;29629;52.532;13.352;2023-05-21T08:08:12;88.63;;;77.13;;
41261;SDS011;29629;52.532;13.352;2023-05-21T08:10:39;87.38;;;76.03;;
41261;SDS011;29629;52.532;13.352;2023-05-21T08:13:06;80.57;;;71.85;;
41261;SDS011;29629;52.532;13.352;2023-05-21T08:15:34;81.88;;;73.00;;
41261;SDS011;29629;52.532;13.352;2023-05-21T08:18:01;80.80;;;72.57;;
41261;SDS011;29629;52.532;13.352;2023-05-21T08:20:28;81.20;;;72.43;;
41261;SDS011;29629;52.532;13.352;2023-05-21T08:22:56;86.60;;;75.07;;
41261;SDS011;29629;52.532;13.352;2023-05-21T08:25:24;76.07;;;68.03;;
41261;SDS011;29629;52.532;13.352;2023-05-21T08:27:51;77.97;;;70.30;;
41261;SDS011;29629;52.532;13.352;2023-05-21T08:30:18;80.88;;;72.78;;
41261;SDS011;29629;52.532;13.352;2023-05-21T08:32:47;92.43;;;80.20;;
41261;SDS011;29629;52.532;13.352;2023-05-21T08:35:14;87.60;;;77.43;;
41261;SDS011;29629;52.532;13.352;2023-05-21T08:37:41;88.30;;;78.75;;
41261;SDS011;29629;52.532;13.352;2023-05-21T08:40:08;88.10;;;78.22;;
41261;SDS011;29629;52.532;13.352;2023-05-21T08:42:38;83.75;;;75.10;;
41261;SDS011;29629;52.532;13.352;2023-05-21T08:45:10;72.57;;;64.85;;
41261;SDS011;29629;52.532;13.352;2023-05-21T08:47:40;71.63;;;64.18;;
41261;SDS011;29629;52.532;13.352;2023-05-21T08:50:10;94.93;;;85.80;;
41261;SDS011;29629;52.532;13.352;2023-05-21T08:52:41;102.65;;;94.68;;
41261;SDS011;29629;52.532;13.352;2023-05-21T08:55:08;99.50;;;92.30;;
41261;SDS011;29629;52.532;13.352;2023-05-21T08:57:35;79.55;;;73.28;;
41261;SDS011;29629;52.532;13.352;2023-05-21T09:00:05;166.93;;;158.23;;
41261;SDS011;29629;52.532;13.352;2023-05-21T09:02:33;136.38;;;128.52;;
41261;SDS011;29629;52.532;13.352;2023-05-21T09:05:02;223.40;;;212.52;;
41261;SDS011;29629;52.532;13.352;2023-05-21T09:07:33;134.50;;;126.40;;
41261;SDS011;29629;52.532;13.352;2023-05-21T09:12:34;126.15;;;118.13;;
41261;SDS011;29629;52.532;13.352;2023-05-21T09:15:01;211.63;;;201.63;;
41261;SDS011;29629;52.532;13.352;2023-05-21T09:17:29;298.00;;;284.63;;
41261;SDS011;29629;52.532;13.352;2023-05-21T09:20:06;191.02;;;181.20;;
41261;SDS011;29629;52.532;13.352;2023-05-21T09:22:37;130.82;;;123.80;;
41261;SDS011;29629;52.532;13.352;2023-05-21T09:25:06;166.43;;;158.32;;
41261;SDS011;29629;52.532;13.352;2023-05-21T09:27:34;266.10;;;253.95;;
41261;SDS011;29629;52.532;13.352;2023-05-21T09:30:02;240.35;;;229.80;;
41261;SDS011;29629;52.532;13.352;2023-05-21T09:32:29;350.50;;;334.95;;
41261;SDS011;29629;52.532;13.352;2023-05-21T09:34:56;367.42;;;350.52;;
41261;SDS011;29629;52.532;13.352;2023-05-21T09:37:28;311.98;;;298.52;;
41261;SDS011;29629;52.532;13.352;2023-05-21T09:39:57;300.17;;;286.42;;
41261;SDS011;29629;52.532;13.352;2023-05-21T09:42:24;384.70;;;366.80;;
41261;SDS011;29629;52.532;13.352;2023-05-21T09:44:55;529.30;;;504.05;;
41261;SDS011;29629;52.532;13.352;2023-05-21T09:47:23;563.80;;;538.38;;
41261;SDS011;29629;52.532;13.352;2023-05-21T09:49:50;557.25;;;531.92;;
41261;SDS011;29629;52.532;13.352;2023-05-21T09:52:22;559.17;;;533.72;;
41261;SDS011;29629;52.532;13.352;2023-05-21T09:54:50;553.05;;;527.70;;
41261;SDS011;29629;52.532;13.352;2023-05-21T09:57:23;516.05;;;492.63;;
41261;SDS011;29629;52.532;13.352;2023-05-21T09:59:51;511.90;;;489.10;;
41261;SDS011;29629;52.532;13.352;2023-05-21T10:02:19;458.05;;;436.42;;
41261;SDS011;29629;52.532;13.352;2023-05-21T10:04:47;465.88;;;443.30;;
41261;SDS011;29629;52.532;13.352;2023-05-21T10:07:16;560.45;;;534.20;;
41261;SDS011;29629;52.532;13.352;2023-05-21T10:09:45;568.50;;;542.45;;
41261;SDS011;29629;52.532;13.352;2023-05-21T10:12:14;557.80;;;532.00;;
41261;SDS011;29629;52.532;13.352;2023-05-21T10:14:44;522.10;;;498.40;;
41261;SDS011;29629;52.532;13.352;2023-05-21T10:17:14;530.63;;;506.85;;
41261;SDS011;29629;52.532;13.352;2023-05-21T10:19:42;439.35;;;418.25;;
41261;SDS011;29629;52.532;13.352;2023-05-21T10:22:11;425.50;;;404.27;;
41261;SDS011;29629;52.532;13.352;2023-05-21T10:24:40;430.67;;;409.77;;
41261;SDS011;29629;52.532;13.352;2023-05-21T10:27:10;444.95;;;423.38;;
41261;SDS011;29629;52.532;13.352;2023-05-21T10:29:38;406.20;;;386.58;;
41261;SDS011;29629;52.532;13.352;2023-05-21T10:32:09;373.13;;;354.65;;
41261;SDS011;29629;52.532;13.352;2023-05-21T10:34:38;409.77;;;389.17;;
41261;SDS011;29629;52.532;13.352;2023-05-21T10:37:06;397.35;;;377.08;;
41261;SDS011;29629;52.532;13.352;2023-05-21T10:39:34;372.20;;;353.05;;
41261;SDS011;29629;52.532;13.352;2023-05-21T10:42:06;519.65;;;495.60;;
41261;SDS011;29629;52.532;13.352;2023-05-21T10:44:43;553.22;;;527.92;;
41261;SDS011;29629;52.532;13.352;2023-05-21T10:50:16;556.58;;;530.63;;
41261;SDS011;29629;52.532;13.352;2023-05-21T10:53:07;547.67;;;521.97;;
41261;SDS011;29629;52.532;13.352;2023-05-21T10:55:45;534.20;;;508.70;;
41261;SDS011;29629;52.532;13.352;2023-05-21T10:58:24;494.52;;;470.95;;
41261;SDS011;29629;52.532;13.352;2023-05-21T11:01:13;431.17;;;410.90;;
41261;SDS011;29629;52.532;13.352;2023-05-21T11:03:44;430.63;;;410.35;;
41261;SDS011;29629;52.532;13.352;2023-05-21T11:06:12;371.33;;;353.90;;
41261;SDS011;29629;52.532;13.352;2023-05-21T11:08:49;363.27;;;345.73;;
41261;SDS011;29629;52.532;13.352;2023-05-21T11:17:03;280.80;;;267.00;;
41261;SDS011;29629;52.532;13.352;2023-05-21T11:19:39;317.70;;;303.85;;
41261;SDS011;29629;52.532;13.352;2023-05-21T11:22:07;384.80;;;366.90;;
41261;SDS011;29629;52.532;13.352;2023-05-21T11:24:39;402.98;;;384.33;;
41261;SDS011;29629;52.532;13.352;2023-05-21T11:27:06;413.50;;;394.05;;
41261;SDS011;29629;52.532;13.352;2023-05-21T11:29:43;412.52;;;393.05;;
41261;SDS011;29629;52.532;13.352;2023-05-21T11:32:11;376.63;;;359.17;;
41261;SDS011;29629;52.532;13.352;2023-05-21T11:34:43;406.30;;;387.42;;
41261;SDS011;29629;52.532;13.352;2023-05-21T11:37:23;375.33;;;357.80;;
41261;SDS011;29629;52.532;13.352;2023-05-21T11:39:55;395.27;;;376.70;;
41261;SDS011;29629;52.532;13.352;2023-05-21T11:42:26;412.92;;;393.20;;
41261;SDS011;29629;52.532;13.352;2023-05-21T11:44:58;416.92;;;396.95;;
41261;SDS011;29629;52.532;13.352;2023-05-21T11:47:26;458.35;;;436.40;;
41261;SDS011;29629;52.532;13.352;2023-05-21T11:49:55;411.95;;;392.48;;
41261;SDS011;29629;52.532;13.352;2023-05-21T11:52:23;405.67;;;386.73;;
41261;SDS011;29629;52.532;13.352;2023-05-21T11:54:51;411.20;;;391.70;;
41261;SDS011;29629;52.532;13.352;2023-05-21T11:57:19;388.98;;;370.92;;
41261;SDS011;29629;52.532;13.352;2023-05-21T11:59:47;394.55;;;376.33;;
41261;SDS011;29629;52.532;13.352;2023-05-21T12:02:15;420.08;;;400.63;;
41261;SDS011;29629;52.532;13.352;2023-05-21T12:04:44;359.13;;;343.45;;
41261;SDS011;29629;52.532;13.352;2023-05-21T12:07:14;359.85;;;343.23;;
41261;SDS011;29629;52.532;13.352;2023-05-21T12:09:42;375.30;;;357.45;;
41261;SDS011;29629;52.532;13.352;2023-05-21T12:12:11;303.83;;;289.27;;
41261;SDS011;29629;52.532;13.352;2023-05-21T12:14:42;302.75;;;288.65;;
41261;SDS011;29629;52.532;13.352;2023-05-21T12:17:10;389.25;;;371.17;;
41261;SDS011;29629;52.532;13.352;2023-05-21T12:19:38;345.02;;;329.33;;
41261;SDS011;29629;52.532;13.352;2023-05-21T12:22:06;359.77;;;343.08;;
41261;SDS011;29629;52.532;13.352;2023-05-21T12:24:36;346.98;;;331.20;;
41261;SDS011;29629;52.532;13.352;2023-05-21T12:27:04;328.23;;;312.60;;
41261;SDS011;29629;52.532;13.352;2023-05-21T12:29:34;325.75;;;311.38;;
41261;SDS011;29629;52.532;13.352;2023-05-21T12:32:03;315.77;;;301.08;;
41261;SDS011;29629;52.532;13.352;2023-05-21T12:34:42;322.05;;;307.02;;
41261;SDS011;29629;52.532;13.352;2023-05-21T12:37:10;263.27;;;251.48;;
41261;SDS011;29629;52.532;13.352;2023-05-21T12:39:41;247.10;;;235.00;;
41261;SDS011;29629;52.532;13.352;2023-05-21T12:42:09;146.50;;;137.57;;
41261;SDS011;29629;52.532;13.352;2023-05-21T12:44:37;216.55;;;205.25;;
41261;SDS011;29629;52.532;13.352;2023-05-21T12:47:04;272.60;;;260.00;;
41261;SDS011;29629;52.532;13.352;2023-05-21T12:49:32;202.25;;;191.90;;
41261;SDS011;29629;52.532;13.352;2023-05-21T12:52:04;188.40;;;177.30;;
41261;SDS011;29629;52.532;13.352;2023-05-21T12:54:34;209.07;;;198.07;;
41261;SDS011;29629;52.532;13.352;2023-05-21T12:57:07;291.70;;;277.67;;
41261;SDS011;29629;52.532;13.352;2023-05-21T12:59:42;195.75;;;184.63;;
41261;SDS011;29629;52.532;13.352;2023-05-21T13:02:12;136.98;;;127.55;;
41261;SDS011;29629;52.532;13.352;2023-05-21T13:04:41;119.65;;;110.50;;
41261;SDS011;29629;52.532;13.352;2023-05-21T13:07:08;125.35;;;117.03;;
41261;SDS011;29629;52.532;13.352;2023-05-21T13:12:12;96.97;;;81.50;;
41261;SDS011;29629;52.532;13.352;2023-05-21T13:14:39;92.22;;;79.38;;
41261;SDS011;29629;52.532;13.352;2023-05-21T13:17:06;96.47;;;78.07;;
41261;SDS011;29629;52.532;13.352;2023-05-21T13:19:33;85.90;;;75.20;;
41261;SDS011;29629;52.532;13.352;2023-05-21T13:22:00;97.10;;;86.18;;
41261;SDS011;29629;52.532;13.352;2023-05-21T13:24:26;100.97;;;88.75;;
41261;SDS011;29629;52.532;13.352;2023-05-21T13:26:53;103.38;;;89.22;;
41261;SDS011;29629;52.532;13.352;2023-05-21T13:29:22;102.82;;;86.30;;
41261;SDS011;29629;52.532;13.352;2023-05-21T13:31:49;105.60;;;91.75;;
41261;SDS011;29629;52.532;13.352;2023-05-21T13:34:15;100.65;;;87.97;;
41261;SDS011;29629;52.532;13.352;2023-05-21T13:36:42;101.32;;;84.55;;
41261;SDS011;29629;52.532;13.352;2023-05-21T13:39:09;100.80;;;86.47;;
41261;SDS011;29629;52.532;13.352;2023-05-21T13:41:36;98.15;;;85.82;;
41261;SDS011;29629;52.532;13.352;2023-05-21T13:44:03;113.85;;;91.97;;
41261;SDS011;29629;52.532;13.352;2023-05-21T13:46:32;106.93;;;89.95;;
41261;SDS011;29629;52.532;13.352;2023-05-21T13:49:03;131.45;;;96.38;;
41261;SDS011;29629;52.532;13.352;2023-05-21T13:51:30;103.18;;;86.53;;
41261;SDS011;29629;52.532;13.352;2023-05-21T13:53:57;101.30;;;87.80;;
41261;SDS011;29629;52.532;13.352;2023-05-21T13:56:24;101.63;;;87.75;;
41261;SDS011;29629;52.532;13.352;2023-05-21T13:58:51;113.13;;;89.60;;
41261;SDS011;29629;52.532;13.352;2023-05-21T14:01:18;94.97;;;83.40;;
41261;SDS011;29629;52.532;13.352;2023-05-21T14:03:46;101.07;;;88.35;;
41261;SDS011;29629;52.532;13.352;2023-05-21T14:06:13;106.55;;;89.63;;
41261;SDS011;29629;52.532;13.352;2023-05-21T14:08:40;104.82;;;89.07;;
41261;SDS011;29629;52.532;13.352;2023-05-21T14:11:07;109.28;;;89.47;;
41261;SDS011;29629;52.532;13.352;2023-05-21T14:13:34;105.82;;;88.50;;